createdAt,value
2018-11-21T00:01:17.727Z,1.00
2018-11-21T00:03:57.147Z,1.10
2018-11-21T00:06:24.840Z,1.20
2018-11-21T00:09:11.749Z,1.00
2018-11-21T00:11:51.247Z,0.90
2018-11-21T00:14:31.075Z,1.00
2018-11-21T00:20:35.963Z,0.80
2018-11-21T00:23:15.723Z,0.70
2018-11-21T00:25:56.052Z,0.80
2018-11-21T00:28:35.770Z,1.00
2018-11-21T00:31:15.711Z,1.00
2018-11-21T00:33:55.212Z,1.00
2018-11-21T00:36:34.913Z,0.90
2018-11-21T00:39:14.695Z,0.80
2018-11-21T00:41:54.521Z,0.60
2018-11-21T00:44:33.958Z,0.60
2018-11-21T00:47:13.913Z,0.60
2018-11-21T00:49:54.352Z,0.30
2018-11-21T00:52:34.967Z,0.30
2018-11-21T00:55:14.392Z,0.40
2018-11-21T00:57:54.237Z,0.50
2018-11-21T01:00:33.887Z,0.60
2018-11-21T01:03:13.662Z,0.50
2018-11-21T01:05:53.932Z,0.50
2018-11-21T01:08:33.780Z,0.50
2018-11-21T01:11:14.055Z,0.40
2018-11-21T01:13:53.965Z,0.50
2018-11-21T01:16:33.751Z,0.60
2018-11-21T01:19:13.915Z,0.50
2018-11-21T01:21:53.618Z,0.50
2018-11-21T01:24:33.590Z,0.60
2018-11-21T01:27:13.522Z,0.50
2018-11-21T01:29:53.226Z,0.50
2018-11-21T01:32:32.869Z,0.50
2018-11-21T01:35:12.197Z,0.40
2018-11-21T01:37:52.174Z,0.50
2018-11-21T01:40:31.742Z,0.50
2018-11-21T01:43:11.300Z,0.50
2018-11-21T01:45:51.042Z,0.60
2018-11-21T01:48:31.349Z,0.50
2018-11-21T01:51:11.045Z,0.40
2018-11-21T01:53:50.599Z,0.50
2018-11-21T01:56:30.290Z,0.50
2018-11-21T01:59:10.174Z,0.40
2018-11-21T02:01:50.779Z,0.30
2018-11-21T02:04:30.900Z,0.40
2018-11-21T02:07:11.008Z,0.40
2018-11-21T02:09:50.697Z,0.30
2018-11-21T02:12:30.570Z,0.30
2018-11-21T02:15:10.402Z,0.20
2018-11-21T02:17:49.925Z,0.10
2018-11-21T02:20:29.813Z,0.00
2018-11-21T02:23:09.404Z,0.00
2018-11-21T02:25:49.091Z,0.10
2018-11-21T02:28:28.880Z,0.20
2018-11-21T02:30:55.932Z,0.20
2018-11-21T02:33:42.561Z,0.20
2018-11-21T02:36:22.537Z,0.20
2018-11-21T02:39:02.683Z,0.10
2018-11-21T02:41:42.249Z,0.20
2018-11-21T02:44:22.192Z,0.20
2018-11-21T02:47:01.721Z,0.10
2018-11-21T02:49:41.318Z,0.10
2018-11-21T02:52:21.259Z,0.20
2018-11-21T02:55:01.118Z,0.30
2018-11-21T02:57:41.083Z,0.20
2018-11-21T03:00:21.179Z,0.00
2018-11-21T03:03:00.755Z,0.00
2018-11-21T03:05:40.358Z,0.10
2018-11-21T03:08:20.124Z,0.00
2018-11-21T03:10:59.915Z,-0.20
2018-11-21T03:13:39.864Z,-0.10
2018-11-21T03:16:19.550Z,-0.10
2018-11-21T03:18:59.333Z,-0.10
2018-11-21T03:21:39.292Z,-0.20
2018-11-21T03:24:19.006Z,-0.20
2018-11-21T03:26:58.729Z,-0.20
2018-11-21T03:29:38.502Z,-0.30
2018-11-21T03:32:18.331Z,-0.20
2018-11-21T03:34:57.901Z,-0.30
2018-11-21T03:37:37.409Z,-0.30
2018-11-21T03:40:17.479Z,-0.20
2018-11-21T03:42:56.945Z,-0.20
2018-11-21T03:45:36.554Z,-0.20
2018-11-21T03:48:16.327Z,-0.20
2018-11-21T03:50:56.019Z,-0.10
2018-11-21T03:53:35.511Z,-0.10
2018-11-21T03:56:14.914Z,0.00
2018-11-21T03:58:54.773Z,-0.20
2018-11-21T04:01:34.555Z,-0.10
2018-11-21T04:04:14.182Z,-0.20
2018-11-21T04:06:54.088Z,-0.20
2018-11-21T04:09:33.795Z,-0.30
2018-11-21T04:12:13.737Z,-0.30
2018-11-21T04:14:53.390Z,-0.20
2018-11-21T04:17:33.302Z,-0.20
2018-11-21T04:20:13.082Z,-0.20
2018-11-21T04:22:52.694Z,-0.20
2018-11-21T04:25:32.510Z,-0.20
2018-11-21T04:28:12.400Z,-0.20
2018-11-21T04:30:52.687Z,-0.10
2018-11-21T04:33:32.079Z,-0.20
2018-11-21T04:36:12.472Z,-0.20
2018-11-21T04:38:52.606Z,-0.20
2018-11-21T04:41:32.251Z,-0.20
2018-11-21T04:44:11.974Z,-0.30
2018-11-21T04:46:51.503Z,-0.20
2018-11-21T04:49:31.147Z,-0.40
2018-11-21T04:52:10.747Z,-0.50
2018-11-21T04:54:50.534Z,-0.60
2018-11-21T04:57:30.163Z,-0.60
2018-11-21T05:00:10.391Z,-0.60
2018-11-21T05:02:50.635Z,-0.50
2018-11-21T05:05:30.150Z,-0.60
2018-11-21T05:08:09.766Z,-0.60
2018-11-21T05:10:49.482Z,-0.50
2018-11-21T05:13:29.216Z,-0.40
2018-11-21T05:15:56.350Z,-0.50
2018-11-21T05:18:43.018Z,-0.40
2018-11-21T05:21:23.247Z,-0.50
2018-11-21T05:24:02.657Z,-0.40
2018-11-21T05:26:42.419Z,-0.30
2018-11-21T05:29:22.304Z,-0.20
2018-11-21T05:32:02.206Z,-0.20
2018-11-21T05:34:42.127Z,-0.20
2018-11-21T05:37:22.118Z,-0.30
2018-11-21T05:40:01.724Z,-0.30
2018-11-21T05:42:41.625Z,-0.40
2018-11-21T05:48:00.989Z,-0.40
2018-11-21T05:50:40.664Z,-0.40
2018-11-21T05:53:20.670Z,-0.50
2018-11-21T05:56:00.220Z,-0.50
2018-11-21T05:58:39.695Z,-0.50
2018-11-21T06:01:20.172Z,-0.50
2018-11-21T06:03:59.871Z,-0.50
2018-11-21T06:06:39.244Z,-0.50
2018-11-21T06:09:19.014Z,-0.50
2018-11-21T06:12:04.233Z,-0.50
2018-11-21T06:14:38.884Z,-0.50
2018-11-21T06:17:19.732Z,-0.40
2018-11-21T06:19:59.449Z,-0.20
2018-11-21T06:22:39.071Z,-0.10
2018-11-21T06:25:18.593Z,-0.10
2018-11-21T06:27:58.483Z,0.00
2018-11-21T06:30:37.831Z,-0.10
2018-11-21T06:33:17.382Z,0.00
2018-11-21T06:35:57.090Z,-0.10
2018-11-21T06:41:16.768Z,-0.20
2018-11-21T06:43:56.406Z,-0.20
2018-11-21T06:46:36.337Z,-0.20
2018-11-21T06:49:16.272Z,-0.20
2018-11-21T06:51:56.171Z,-0.30
2018-11-21T06:54:35.827Z,-0.30
2018-11-21T06:57:15.810Z,-0.40
2018-11-21T06:59:55.532Z,-0.40
2018-11-21T07:02:35.776Z,-0.60
2018-11-21T07:05:15.272Z,-0.60
2018-11-21T07:07:57.730Z,-0.70
2018-11-21T07:10:37.628Z,-0.70
2018-11-21T07:13:17.709Z,-0.70
2018-11-21T07:15:57.566Z,-0.70
2018-11-21T07:18:24.975Z,-0.70
2018-11-21T07:21:11.879Z,-0.70
2018-11-21T07:23:52.019Z,-0.80
2018-11-21T07:26:32.069Z,-0.80
2018-11-21T07:29:12.025Z,-0.80
2018-11-21T07:31:51.512Z,-0.70
2018-11-21T07:34:31.227Z,-0.80
2018-11-21T07:37:11.260Z,-0.70
2018-11-21T07:39:50.762Z,-0.70
2018-11-21T07:42:30.591Z,-0.60
2018-11-21T07:45:11.462Z,-0.60
2018-11-21T07:47:51.237Z,-0.60
2018-11-21T07:50:31.021Z,-0.70
2018-11-21T07:53:10.563Z,-0.60
2018-11-21T07:55:50.486Z,-0.60
2018-11-21T07:58:30.538Z,-0.60
2018-11-21T08:01:29.943Z,-0.60
2018-11-21T08:04:19.714Z,-0.60
2018-11-21T08:07:19.490Z,-0.70
2018-11-21T08:10:18.607Z,-0.70
2018-11-21T08:13:17.729Z,-0.70
2018-11-21T08:16:16.793Z,-0.60
2018-11-21T08:19:16.674Z,-0.60
2018-11-21T08:22:19.639Z,-0.50
2018-11-21T08:25:25.301Z,-0.50
2018-11-21T08:28:25.089Z,-0.40
2018-11-21T08:31:05.396Z,-0.40
2018-11-21T08:33:45.704Z,-0.40
2018-11-21T08:36:25.403Z,-0.40
2018-11-21T08:39:05.738Z,-0.40
2018-11-21T08:41:46.341Z,-0.40
2018-11-21T08:44:24.140Z,-0.40
2018-11-21T08:47:11.142Z,-0.40
2018-11-21T08:49:51.190Z,-0.40
2018-11-21T08:52:30.982Z,-0.40
2018-11-21T08:55:11.479Z,-0.40
2018-11-21T08:57:51.469Z,-0.40
2018-11-21T09:00:31.171Z,-0.30
2018-11-21T09:06:09.933Z,-0.30
2018-11-21T09:08:49.651Z,-0.30
2018-11-21T09:11:29.203Z,-0.20
2018-11-21T09:14:08.988Z,-0.20
2018-11-21T09:16:48.379Z,-0.20
2018-11-21T09:19:28.084Z,-0.10
2018-11-21T09:22:07.509Z,-0.10
2018-11-21T09:24:47.753Z,-0.10
2018-11-21T09:27:27.191Z,0.00
2018-11-21T09:30:17.818Z,0.00
2018-11-21T09:33:04.849Z,0.00
2018-11-21T09:35:44.720Z,0.10
2018-11-21T09:38:24.365Z,0.10
2018-11-21T09:41:04.582Z,0.20
2018-11-21T09:43:44.711Z,0.30
2018-11-21T09:46:24.483Z,0.30
2018-11-21T09:49:04.329Z,0.40
2018-11-21T09:51:44.350Z,0.30
2018-11-21T09:54:24.477Z,0.40
2018-11-21T09:57:04.006Z,0.40
2018-11-21T09:59:44.143Z,0.40
2018-11-21T10:02:23.863Z,0.50
2018-11-21T10:05:03.914Z,0.40
2018-11-21T10:07:43.407Z,0.40
2018-11-21T10:10:23.563Z,0.40
2018-11-21T10:13:03.121Z,0.40
2018-11-21T10:15:42.898Z,0.40
2018-11-21T10:18:22.753Z,0.40
2018-11-21T10:21:02.525Z,0.40
2018-11-21T10:23:42.184Z,0.40
2018-11-21T10:26:21.722Z,0.40
2018-11-21T10:29:01.340Z,0.50
2018-11-21T10:31:41.313Z,0.50
2018-11-21T10:34:21.340Z,0.50
2018-11-21T10:37:01.035Z,0.50
2018-11-21T10:39:40.881Z,0.50
2018-11-21T10:42:20.907Z,0.50
2018-11-21T10:45:01.283Z,0.50
2018-11-21T10:47:41.524Z,0.50
2018-11-21T10:50:21.852Z,0.60
2018-11-21T10:53:01.508Z,0.60
2018-11-21T10:55:41.238Z,0.60
2018-11-21T10:58:20.603Z,0.80
2018-11-21T11:01:19.810Z,0.80
2018-11-21T11:04:06.421Z,0.90
2018-11-21T11:07:06.176Z,0.90
2018-11-21T11:10:05.899Z,0.90
2018-11-21T11:13:11.343Z,0.90
2018-11-21T11:16:13.656Z,0.90
2018-11-21T11:19:13.360Z,0.90
2018-11-21T11:21:54.272Z,0.90
2018-11-21T11:24:35.072Z,1.00
2018-11-21T11:27:15.913Z,1.00
2018-11-21T11:30:21.717Z,1.10
2018-11-21T11:33:21.470Z,1.20
2018-11-21T11:36:02.357Z,1.10
2018-11-21T11:39:01.950Z,1.10
2018-11-21T11:42:01.240Z,1.10
2018-11-21T11:45:01.034Z,1.20
2018-11-21T11:48:00.161Z,1.20
2018-11-21T11:50:59.511Z,1.30
2018-11-21T11:53:57.208Z,1.30
2018-11-21T11:57:03.491Z,1.30
2018-11-21T12:00:02.513Z,1.30
2018-11-21T12:03:01.445Z,1.40
2018-11-21T12:06:04.102Z,1.50
2018-11-21T12:08:53.968Z,1.50
2018-11-21T12:11:53.029Z,1.50
2018-11-21T12:14:52.256Z,1.50
2018-11-21T12:17:51.518Z,1.50
2018-11-21T12:20:51.472Z,1.50
2018-11-21T12:23:51.093Z,1.50
2018-11-21T12:26:37.227Z,1.50
2018-11-21T12:29:42.761Z,1.50
2018-11-21T12:32:42.427Z,1.50
2018-11-21T12:35:41.410Z,1.60
2018-11-21T12:38:39.067Z,1.60
2018-11-21T12:41:41.149Z,1.70
2018-11-21T12:44:44.040Z,1.80
2018-11-21T12:47:43.761Z,1.80
2018-11-21T12:50:31.007Z,1.80
2018-11-21T12:53:37.274Z,1.70
2018-11-21T12:56:36.832Z,1.90
2018-11-21T12:59:24.252Z,2.10
2018-11-21T13:02:30.474Z,2.20
2018-11-21T13:05:29.624Z,2.10
2018-11-21T13:08:16.366Z,2.00
2018-11-21T13:11:21.482Z,2.10
2018-11-21T13:14:20.778Z,2.00
2018-11-21T13:17:20.523Z,2.00
2018-11-21T13:20:20.257Z,2.00
2018-11-21T13:23:19.345Z,2.10
2018-11-21T13:26:25.547Z,2.10
2018-11-21T13:29:25.261Z,2.20
2018-11-21T13:32:25.066Z,2.30
2018-11-21T13:35:24.077Z,2.50
2018-11-21T13:38:23.315Z,2.40
2018-11-21T13:41:06.683Z,2.30
2018-11-21T13:44:13.015Z,2.30
2018-11-21T13:50:34.604Z,2.20
2018-11-21T13:53:34.244Z,2.20
2018-11-21T13:56:14.387Z,2.30
2018-11-21T13:58:54.310Z,2.20
2018-11-21T14:01:34.727Z,2.30
2018-11-21T14:04:14.754Z,2.30
2018-11-21T14:06:54.196Z,2.30
2018-11-21T14:09:34.091Z,2.40
2018-11-21T14:12:13.782Z,2.50
2018-11-21T14:14:54.476Z,2.50
2018-11-21T14:17:34.854Z,2.50
2018-11-21T14:20:15.220Z,2.50
2018-11-21T14:22:55.471Z,2.50
2018-11-21T14:25:35.699Z,2.50
2018-11-21T14:28:15.754Z,2.50
2018-11-21T14:30:55.909Z,2.50
2018-11-21T14:33:35.350Z,2.60
2018-11-21T14:36:14.797Z,2.50
2018-11-21T14:38:54.692Z,2.60
2018-11-21T14:41:32.479Z,2.50
2018-11-21T14:44:19.230Z,2.60
2018-11-21T14:46:59.368Z,2.60
2018-11-21T14:49:38.843Z,2.60
2018-11-21T14:52:18.570Z,2.70
2018-11-21T14:54:58.938Z,2.70
2018-11-21T14:57:39.299Z,2.70
2018-11-21T15:00:19.763Z,2.70
2018-11-21T15:02:59.823Z,2.80
2018-11-21T15:05:40.197Z,2.80
2018-11-21T15:08:20.113Z,2.90
2018-11-21T15:10:59.716Z,2.80
2018-11-21T15:13:39.434Z,2.80
2018-11-21T15:16:18.922Z,2.90
2018-11-21T15:18:58.421Z,2.90
2018-11-21T15:21:38.016Z,2.90
2018-11-21T15:24:17.835Z,2.90
2018-11-21T15:26:57.376Z,2.90
2018-11-21T15:29:36.970Z,2.90
2018-11-21T15:32:17.011Z,2.90
2018-11-21T15:34:57.594Z,2.90
2018-11-21T15:37:38.632Z,2.90
2018-11-21T15:40:20.379Z,2.90
2018-11-21T15:43:00.588Z,2.90
2018-11-21T15:45:40.338Z,2.90
2018-11-21T15:48:20.035Z,2.90
2018-11-21T15:50:59.922Z,2.90
2018-11-21T15:53:40.112Z,2.90
2018-11-21T15:56:19.850Z,2.90
2018-11-21T15:58:59.717Z,2.90
2018-11-21T16:01:39.679Z,2.90
2018-11-21T16:04:20.330Z,2.90
2018-11-21T16:06:59.858Z,2.90
2018-11-21T16:09:39.888Z,2.90
2018-11-21T16:12:19.973Z,2.90
2018-11-21T16:14:59.320Z,2.90
2018-11-21T16:17:39.024Z,2.90
2018-11-21T16:20:18.731Z,2.90
2018-11-21T16:22:58.459Z,2.90
2018-11-21T16:25:38.281Z,2.90
2018-11-21T16:28:17.893Z,2.90
2018-11-21T16:30:57.825Z,2.90
2018-11-21T16:33:37.841Z,2.90
2018-11-21T16:36:17.351Z,2.90
2018-11-21T16:38:57.427Z,2.90
2018-11-21T16:41:37.057Z,2.90
2018-11-21T16:44:16.631Z,2.90
2018-11-21T16:46:56.734Z,2.90
2018-11-21T16:49:36.445Z,2.90
2018-11-21T16:52:16.026Z,2.90
2018-11-21T16:54:53.927Z,2.80
2018-11-21T16:57:40.894Z,2.80
2018-11-21T17:00:22.546Z,2.80
2018-11-21T17:03:02.993Z,2.80
2018-11-21T17:05:42.623Z,2.80
